createdAt,value
2023-02-22T00:02:11.171Z,7.55
2023-02-22T00:05:17.098Z,7.28
2023-02-22T00:08:24.452Z,7.55
2023-02-22T00:11:27.598Z,7.23
2023-02-22T00:14:30.377Z,7.50
2023-02-22T00:17:34.293Z,8.50
2023-02-22T00:20:40.548Z,7.93
2023-02-22T00:23:49.108Z,7.68
2023-02-22T00:26:55.811Z,7.80
2023-02-22T00:29:59.096Z,8.20
2023-02-22T00:33:02.101Z,8.65
2023-02-22T00:36:05.529Z,8.05
2023-02-22T00:39:10.038Z,7.72
2023-02-22T00:42:14.431Z,8.40
2023-02-22T00:45:21.890Z,7.93
2023-02-22T00:48:25.559Z,8.70
2023-02-22T00:51:28.983Z,8.57
2023-02-22T00:54:31.989Z,8.52
2023-02-22T00:57:35.371Z,7.93
2023-02-22T01:00:41.786Z,8.23
2023-02-22T01:03:45.156Z,7.82
2023-02-22T01:06:48.354Z,7.57
2023-02-22T01:09:51.127Z,8.10
2023-02-22T01:12:54.985Z,8.13
2023-02-22T01:15:57.694Z,7.72
2023-02-22T01:19:01.558Z,7.80
2023-02-22T01:22:05.666Z,7.55
2023-02-22T01:25:10.789Z,8.00
2023-02-22T01:28:14.078Z,6.73
2023-02-22T01:31:18.045Z,8.20
2023-02-22T01:34:22.907Z,7.82
2023-02-22T01:37:25.851Z,8.60
2023-02-22T01:40:36.922Z,8.52
2023-02-22T01:43:40.021Z,8.77
2023-02-22T01:46:42.830Z,8.75
2023-02-22T01:49:50.285Z,8.57
2023-02-22T01:52:53.309Z,7.72
2023-02-22T01:55:57.296Z,7.97
2023-02-22T01:59:03.896Z,8.20
2023-02-22T02:02:07.405Z,7.85
2023-02-22T02:05:11.011Z,8.55
2023-02-22T02:08:39.207Z,7.93
2023-02-22T02:11:42.774Z,7.93
2023-02-22T02:14:45.924Z,7.80
2023-02-22T02:17:50.441Z,8.98
2023-02-22T02:21:10.573Z,8.15
2023-02-22T02:24:33.229Z,7.50
2023-02-22T02:27:45.298Z,8.02
2023-02-22T02:31:11.182Z,7.17
2023-02-22T02:34:32.297Z,7.90
2023-02-22T02:38:22.317Z,7.62
2023-02-22T02:41:30.170Z,7.53
2023-02-22T02:44:38.944Z,8.18
2023-02-22T02:47:48.123Z,7.37
2023-02-22T02:50:51.539Z,8.20
2023-02-22T02:53:56.134Z,7.65
2023-02-22T02:56:59.298Z,7.87
2023-02-22T03:00:02.355Z,7.70
2023-02-22T03:03:25.312Z,7.80
2023-02-22T03:07:08.520Z,8.20
2023-02-22T03:10:43.416Z,8.32
2023-02-22T03:14:30.004Z,9.35
2023-02-22T03:17:52.842Z,8.77
2023-02-22T03:21:29.944Z,8.57
2023-02-22T03:25:02.325Z,9.30
2023-02-22T03:28:11.924Z,9.00
2023-02-22T03:31:21.759Z,10.05
2023-02-22T03:34:35.342Z,9.13
2023-02-22T03:37:46.714Z,8.20
2023-02-22T03:40:54.658Z,8.60
2023-02-22T03:44:05.705Z,9.70
2023-02-22T03:47:14.459Z,8.52
2023-02-22T03:50:20.380Z,8.38
2023-02-22T03:53:23.678Z,9.00
2023-02-22T03:56:36.081Z,11.88
2023-02-22T03:59:40.451Z,15.48
2023-02-22T04:02:43.257Z,41.08
2023-02-22T04:05:47.204Z,28.38
2023-02-22T04:08:50.054Z,24.73
2023-02-22T04:11:53.384Z,21.98
2023-02-22T04:14:56.364Z,13.02
2023-02-22T04:18:00.172Z,11.02
2023-02-22T04:21:04.329Z,9.52
2023-02-22T04:24:08.080Z,9.40
2023-02-22T04:27:10.960Z,8.05
2023-02-22T04:30:16.998Z,9.68
2023-02-22T04:33:19.936Z,9.25
2023-02-22T04:36:23.195Z,8.93
2023-02-22T04:39:26.197Z,10.07
2023-02-22T04:42:29.975Z,8.60
2023-02-22T04:45:32.723Z,9.65
2023-02-22T04:48:36.734Z,11.82
2023-02-22T04:51:39.722Z,11.02
2023-02-22T04:54:43.208Z,14.13
2023-02-22T04:57:46.024Z,13.25
2023-02-22T05:00:49.253Z,10.90
2023-02-22T05:03:52.094Z,11.18
2023-02-22T05:06:55.210Z,11.57
2023-02-22T05:09:58.013Z,10.90
2023-02-22T05:13:01.958Z,11.00
2023-02-22T05:16:06.175Z,10.27
2023-02-22T05:19:09.376Z,10.98
2023-02-22T05:22:12.012Z,8.95
2023-02-22T05:25:15.179Z,8.03
2023-02-22T05:28:17.919Z,9.18
2023-02-22T05:31:21.023Z,9.10
2023-02-22T05:34:24.150Z,10.85
2023-02-22T05:37:27.647Z,17.95
2023-02-22T05:40:31.692Z,19.33
2023-02-22T05:43:34.773Z,15.95
2023-02-22T05:46:37.552Z,22.30
2023-02-22T05:49:40.829Z,17.05
2023-02-22T05:52:43.982Z,12.77
2023-02-22T05:55:47.175Z,9.07
2023-02-22T05:58:50.167Z,11.25
2023-02-22T06:01:53.293Z,12.20
2023-02-22T06:04:56.535Z,9.90
2023-02-22T06:07:59.597Z,8.85
2023-02-22T06:11:02.765Z,8.30
2023-02-22T06:14:05.494Z,8.20
2023-02-22T06:17:08.516Z,7.10
2023-02-22T06:20:13.649Z,8.57
2023-02-22T06:23:16.852Z,8.23
2023-02-22T06:26:20.045Z,8.30
2023-02-22T06:29:27.630Z,10.40
2023-02-22T06:32:30.389Z,9.43
2023-02-22T06:35:33.453Z,9.20
2023-02-22T06:38:36.209Z,13.02
2023-02-22T06:41:39.351Z,9.70
2023-02-22T06:44:42.027Z,10.40
2023-02-22T06:47:45.455Z,12.57
2023-02-22T06:50:48.121Z,14.18
2023-02-22T06:53:51.171Z,11.50
2023-02-22T06:56:53.825Z,13.60
2023-02-22T06:59:57.625Z,14.77
2023-02-22T07:03:00.945Z,15.93
2023-02-22T07:06:05.064Z,11.70
2023-02-22T07:09:07.840Z,12.65
2023-02-22T07:12:11.076Z,12.27
2023-02-22T07:15:14.232Z,11.95
2023-02-22T07:18:17.322Z,15.02
2023-02-22T07:21:20.070Z,16.17
2023-02-22T07:24:23.177Z,16.17
2023-02-22T07:27:25.900Z,13.23
2023-02-22T07:30:31.662Z,13.90
2023-02-22T07:33:35.671Z,12.55
2023-02-22T07:36:38.801Z,9.82
2023-02-22T07:39:43.904Z,10.93
2023-02-22T07:43:14.613Z,11.93
2023-02-22T07:46:17.379Z,10.05
2023-02-22T07:49:20.552Z,11.27
2023-02-22T07:52:23.184Z,10.48
2023-02-22T07:55:28.831Z,11.07
2023-02-22T07:58:32.773Z,11.50
2023-02-22T08:01:37.448Z,10.48
2023-02-22T08:04:40.595Z,10.32
2023-02-22T08:07:43.549Z,10.13
2023-02-22T08:10:47.458Z,9.73
2023-02-22T08:13:50.209Z,11.13
2023-02-22T08:16:53.331Z,13.60
2023-02-22T08:19:56.117Z,14.00
2023-02-22T08:22:59.092Z,11.12
2023-02-22T08:26:08.064Z,10.00
2023-02-22T08:29:11.069Z,11.00
2023-02-22T08:32:13.973Z,10.38
2023-02-22T08:35:18.593Z,10.80
2023-02-22T08:38:25.172Z,9.20
2023-02-22T08:41:28.192Z,8.40
2023-02-22T08:44:30.867Z,10.83
2023-02-22T08:47:34.475Z,10.43
2023-02-22T08:50:38.350Z,8.10
2023-02-22T08:53:41.395Z,10.90
2023-02-22T08:56:45.153Z,11.05
2023-02-22T08:59:48.143Z,8.00
2023-02-22T09:02:54.268Z,7.82
2023-02-22T09:05:59.709Z,9.30
2023-02-22T09:09:02.951Z,10.48
2023-02-22T09:12:06.333Z,9.15
2023-02-22T09:15:09.799Z,8.60
2023-02-22T09:18:14.860Z,8.82
2023-02-22T09:21:18.170Z,8.68
2023-02-22T09:24:21.714Z,5.72
2023-02-22T09:27:24.600Z,6.95
2023-02-22T09:30:34.075Z,9.47
2023-02-22T09:33:36.880Z,8.90
2023-02-22T09:36:44.360Z,8.10
2023-02-22T09:39:47.182Z,7.57
2023-02-22T09:43:01.072Z,7.68
2023-02-22T09:46:19.718Z,7.20
2023-02-22T09:49:40.069Z,7.95
2023-02-22T09:52:58.072Z,6.35
2023-02-22T09:56:06.998Z,6.10
2023-02-22T09:59:15.861Z,6.85
2023-02-22T10:02:31.843Z,7.33
2023-02-22T10:05:39.984Z,6.70
2023-02-22T10:08:45.062Z,6.03
2023-02-22T10:12:16.544Z,6.80
2023-02-22T10:15:41.598Z,5.57
2023-02-22T10:18:48.179Z,7.93
2023-02-22T10:21:50.804Z,6.57
2023-02-22T10:25:00.202Z,6.20
2023-02-22T10:28:28.394Z,5.85
2023-02-22T10:31:34.138Z,6.15
2023-02-22T10:34:43.391Z,6.07
2023-02-22T10:37:48.453Z,7.10
2023-02-22T10:41:17.542Z,8.90
2023-02-22T10:44:20.714Z,6.00
2023-02-22T10:47:24.852Z,6.45
2023-02-22T10:50:32.260Z,6.87
2023-02-22T10:53:38.484Z,6.40
2023-02-22T10:56:55.171Z,6.72
2023-02-22T10:59:58.549Z,6.60
2023-02-22T11:03:18.129Z,6.37
2023-02-22T11:06:21.943Z,6.77
2023-02-22T11:09:25.678Z,6.62
2023-02-22T11:12:32.863Z,6.90
2023-02-22T11:15:36.212Z,7.78
2023-02-22T11:18:39.053Z,6.65
2023-02-22T11:21:43.288Z,6.80
2023-02-22T11:25:02.604Z,7.47
2023-02-22T11:28:15.097Z,7.10
2023-02-22T11:31:21.997Z,6.87
2023-02-22T11:34:26.695Z,7.80
2023-02-22T11:37:36.745Z,6.87
2023-02-22T11:40:40.370Z,7.40
2023-02-22T11:43:48.216Z,7.05
2023-02-22T11:46:55.863Z,7.25
2023-02-22T11:49:58.617Z,6.97
2023-02-22T11:53:40.097Z,6.63
2023-02-22T11:56:49.986Z,6.43
2023-02-22T12:00:17.034Z,6.55
2023-02-22T12:03:50.100Z,6.62
2023-02-22T12:07:10.781Z,8.75
2023-02-22T12:10:47.223Z,16.70
2023-02-22T12:14:07.831Z,8.95
2023-02-22T12:17:26.180Z,7.12
2023-02-22T12:20:47.815Z,6.60
2023-02-22T12:24:07.486Z,6.35
2023-02-22T12:27:22.604Z,6.47
2023-02-22T12:30:34.571Z,5.95
2023-02-22T12:34:20.174Z,5.70
2023-02-22T12:37:29.168Z,6.45
2023-02-22T12:40:54.761Z,6.43
2023-02-22T12:44:10.130Z,6.70
2023-02-22T12:47:21.839Z,6.90
2023-02-22T12:50:29.764Z,8.00
2023-02-22T12:53:37.307Z,7.00
2023-02-22T12:56:56.283Z,7.65
2023-02-22T13:00:10.454Z,7.00
2023-02-22T13:03:35.148Z,7.22
2023-02-22T13:07:08.865Z,7.07
2023-02-22T13:10:31.527Z,6.95
2023-02-22T13:13:55.630Z,6.90
2023-02-22T13:17:24.941Z,7.80
2023-02-22T13:20:34.436Z,6.85
2023-02-22T13:23:50.637Z,7.03
2023-02-22T13:27:22.969Z,6.53
2023-02-22T13:30:51.793Z,7.10
2023-02-22T13:34:40.347Z,6.10
2023-02-22T13:38:05.978Z,6.28
2023-02-22T13:41:20.851Z,7.32
2023-02-22T13:45:13.299Z,7.20
2023-02-22T13:48:24.897Z,6.47
2023-02-22T13:51:37.180Z,6.77
2023-02-22T13:55:11.334Z,6.68
2023-02-22T13:58:15.612Z,6.72
2023-02-22T14:01:42.682Z,6.80
2023-02-22T14:04:45.780Z,7.43
2023-02-22T14:07:49.578Z,7.07
2023-02-22T14:10:55.951Z,6.55
2023-02-22T14:14:01.204Z,6.50
2023-02-22T14:17:28.983Z,7.40
2023-02-22T14:20:40.400Z,6.68
2023-02-22T14:23:45.958Z,6.83
2023-02-22T14:26:59.761Z,7.40
2023-02-22T14:30:02.978Z,7.40
2023-02-22T14:33:44.346Z,7.20
2023-02-22T14:36:58.868Z,6.40
2023-02-22T14:40:13.253Z,6.37
2023-02-22T14:43:21.319Z,6.07
2023-02-22T14:46:29.679Z,6.82
2023-02-22T14:49:42.319Z,6.60
2023-02-22T14:52:48.993Z,6.70
2023-02-22T14:56:02.863Z,8.63
2023-02-22T14:59:17.870Z,6.82
2023-02-22T15:02:26.133Z,17.62
2023-02-22T15:05:38.712Z,9.10
2023-02-22T15:08:48.959Z,7.53
2023-02-22T15:12:04.228Z,7.97
2023-02-22T15:15:14.529Z,8.98
2023-02-22T15:18:22.255Z,7.00
2023-02-22T15:21:28.562Z,6.80
2023-02-22T15:24:34.903Z,6.75
2023-02-22T15:27:41.437Z,8.00
2023-02-22T15:30:44.772Z,9.65
2023-02-22T15:33:47.890Z,8.57
2023-02-22T15:36:54.790Z,7.20
2023-02-22T15:40:21.116Z,8.73
2023-02-22T15:43:25.415Z,7.57
2023-02-22T15:46:29.222Z,7.65
2023-02-22T15:49:37.241Z,13.93
2023-02-22T15:52:40.375Z,7.43
2023-02-22T15:55:50.054Z,7.20
2023-02-22T15:59:00.996Z,7.03
2023-02-22T16:02:04.341Z,6.95
2023-02-22T16:05:12.410Z,8.25
2023-02-22T16:08:23.473Z,8.48
2023-02-22T16:11:32.189Z,7.82
2023-02-22T16:14:35.016Z,9.27
2023-02-22T16:18:02.347Z,9.00
2023-02-22T16:21:13.282Z,8.45
2023-02-22T16:24:27.036Z,7.90
2023-02-22T16:27:29.914Z,7.82
2023-02-22T16:30:38.665Z,9.77
2023-02-22T16:33:43.517Z,12.15
2023-02-22T16:36:52.059Z,10.13
2023-02-22T16:39:56.847Z,13.55
2023-02-22T16:43:03.049Z,12.77
2023-02-22T16:46:07.232Z,11.63
2023-02-22T16:49:12.826Z,10.32
2023-02-22T16:52:15.963Z,8.32
2023-02-22T16:55:22.740Z,10.82
2023-02-22T16:58:30.073Z,19.27
2023-02-22T17:01:35.209Z,25.93
2023-02-22T17:04:40.414Z,22.80
2023-02-22T17:07:45.417Z,25.20
2023-02-22T17:10:51.751Z,29.20
2023-02-22T17:13:55.903Z,26.48
2023-02-22T17:16:59.919Z,26.27
2023-02-22T17:20:12.011Z,25.37
2023-02-22T17:23:15.592Z,28.73
2023-02-22T17:26:19.697Z,26.58
2023-02-22T17:29:23.152Z,39.08
2023-02-22T17:32:26.927Z,35.63
2023-02-22T17:35:36.507Z,30.77
2023-02-22T17:38:42.662Z,31.85
2023-02-22T17:41:46.212Z,28.30
2023-02-22T17:44:50.333Z,28.75
2023-02-22T17:47:53.657Z,29.40
2023-02-22T17:50:57.373Z,28.80
2023-02-22T17:54:02.177Z,29.52
2023-02-22T17:57:06.135Z,28.17
2023-02-22T18:00:16.326Z,32.13
2023-02-22T18:03:26.173Z,30.53
2023-02-22T18:06:33.393Z,28.00
2023-02-22T18:09:38.970Z,29.52
2023-02-22T18:12:44.308Z,29.08
2023-02-22T18:15:49.231Z,30.35
2023-02-22T18:18:54.203Z,33.57
2023-02-22T18:22:00.405Z,31.25
2023-02-22T18:25:04.241Z,25.60
2023-02-22T18:28:09.128Z,25.33
2023-02-22T18:31:16.020Z,35.30
2023-02-22T18:34:19.678Z,36.60
2023-02-22T18:37:24.674Z,37.90
2023-02-22T18:40:32.433Z,39.47
2023-02-22T18:43:38.653Z,33.63
2023-02-22T18:46:46.586Z,31.50
2023-02-22T18:49:51.393Z,30.03
2023-02-22T18:52:56.160Z,28.77
2023-02-22T18:56:08.028Z,46.67
2023-02-22T18:59:13.435Z,23.83
2023-02-22T19:02:21.935Z,20.27
2023-02-22T19:05:25.805Z,19.77
2023-02-22T19:08:33.334Z,23.75
2023-02-22T19:11:39.101Z,21.20
2023-02-22T19:14:43.178Z,20.37
2023-02-22T19:17:47.946Z,19.08
2023-02-22T19:20:59.968Z,20.07
2023-02-22T19:24:06.808Z,20.40
2023-02-22T19:27:11.763Z,20.95
2023-02-22T19:30:20.857Z,21.37
2023-02-22T19:33:26.336Z,23.50
2023-02-22T19:36:32.405Z,22.70
2023-02-22T19:39:39.136Z,25.40
2023-02-22T19:42:46.561Z,23.83
2023-02-22T19:45:50.460Z,24.35
2023-02-22T19:48:59.122Z,25.15
2023-02-22T19:52:07.885Z,27.50
2023-02-22T19:55:19.917Z,34.10
2023-02-22T19:58:24.506Z,31.95
2023-02-22T20:01:33.979Z,36.58
2023-02-22T20:04:39.061Z,32.63
2023-02-22T20:07:44.795Z,34.60
2023-02-22T20:10:49.111Z,34.00
2023-02-22T20:13:57.656Z,37.47
2023-02-22T20:17:02.447Z,42.13
2023-02-22T20:20:07.586Z,40.17
2023-02-22T20:23:15.675Z,36.50
2023-02-22T20:26:24.942Z,35.47
2023-02-22T20:29:32.352Z,36.15
2023-02-22T20:32:40.912Z,35.20
2023-02-22T20:35:46.517Z,35.92
2023-02-22T20:38:55.038Z,33.50
2023-02-22T20:42:02.151Z,31.45
2023-02-22T20:45:07.186Z,29.33
2023-02-22T20:48:12.351Z,27.87
2023-02-22T20:51:17.460Z,26.65
2023-02-22T20:54:22.366Z,28.87
2023-02-22T20:57:25.776Z,27.90
2023-02-22T21:00:30.816Z,26.50
2023-02-22T21:03:36.088Z,27.05
2023-02-22T21:06:42.361Z,26.17
2023-02-22T21:09:46.326Z,25.77
2023-02-22T21:12:52.292Z,27.33
2023-02-22T21:15:56.300Z,26.77
2023-02-22T21:19:04.524Z,26.10
2023-02-22T21:22:09.011Z,24.27
2023-02-22T21:25:14.723Z,27.07
2023-02-22T21:28:18.713Z,23.40
2023-02-22T21:31:24.960Z,25.70
2023-02-22T21:34:32.051Z,24.10
2023-02-22T21:37:35.826Z,24.25
2023-02-22T21:40:39.552Z,27.93
2023-02-22T21:43:44.715Z,24.20
2023-02-22T21:46:51.035Z,26.27
2023-02-22T21:49:54.888Z,25.33
2023-02-22T21:52:58.405Z,23.27
2023-02-22T21:56:06.021Z,24.30
2023-02-22T21:59:15.739Z,22.90
2023-02-22T22:02:21.111Z,24.90
2023-02-22T22:05:34.868Z,24.55
2023-02-22T22:08:40.347Z,30.50
2023-02-22T22:11:43.419Z,26.83
2023-02-22T22:14:46.195Z,25.15
2023-02-22T22:17:49.316Z,26.15
2023-02-22T22:20:52.069Z,26.42
2023-02-22T22:23:56.343Z,26.55
2023-02-22T22:27:03.826Z,27.60
2023-02-22T22:30:08.333Z,25.83
2023-02-22T22:33:11.590Z,25.20
2023-02-22T22:36:17.215Z,24.25
2023-02-22T22:39:21.337Z,24.48
2023-02-22T22:42:25.142Z,23.50
2023-02-22T22:45:27.961Z,24.75
2023-02-22T22:48:36.168Z,24.98
2023-02-22T22:51:41.170Z,25.05
2023-02-22T22:54:44.342Z,24.10
2023-02-22T22:57:47.146Z,23.53
2023-02-22T23:00:50.254Z,15.65
2023-02-22T23:04:01.560Z,18.08
2023-02-22T23:07:06.794Z,21.87
2023-02-22T23:10:12.832Z,16.33
2023-02-22T23:13:15.888Z,16.40
2023-02-22T23:16:20.022Z,15.98
2023-02-22T23:19:23.045Z,14.45
2023-02-22T23:22:27.591Z,12.68
2023-02-22T23:25:30.629Z,12.50
2023-02-22T23:28:33.329Z,12.63
2023-02-22T23:31:39.846Z,10.65
2023-02-22T23:34:42.720Z,11.60
2023-02-22T23:37:53.124Z,11.18
2023-02-22T23:40:57.821Z,11.48
2023-02-22T23:44:01.119Z,11.60
2023-02-22T23:47:04.529Z,11.23
2023-02-22T23:50:13.651Z,11.65
2023-02-22T23:53:16.468Z,10.93
2023-02-22T23:56:22.152Z,10.48
2023-02-22T23:59:26.778Z,10.87
